sensor_id;sensor_type;location;lat;lon;timestamp;pressure;altitude;pressure_sealevel;temperature;humidity
79589;BME280;69067;51.930;4.492;2024-02-26T00:01:43;99827.63;;;23.99;32.60
79589;BME280;69067;51.930;4.492;2024-02-26T00:04:12;99832.13;;;24.05;32.28
79589;BME280;69067;51.930;4.492;2024-02-26T00:06:38;99825.75;;;23.99;32.88
79589;BME280;69067;51.930;4.492;2024-02-26T00:09:07;99822.19;;;24.10;32.10
79589;BME280;69067;51.930;4.492;2024-02-26T00:11:34;99825.16;;;23.97;32.38
79589;BME280;69067;51.930;4.492;2024-02-26T00:14:01;99822.19;;;23.99;32.46
79589;BME280;69067;51.930;4.492;2024-02-26T00:16:26;99825.50;;;24.01;32.82
79589;BME280;69067;51.930;4.492;2024-02-26T00:18:52;99828.47;;;23.99;32.52
79589;BME280;69067;51.930;4.492;2024-02-26T00:21:18;99832.47;;;23.97;32.62
79589;BME280;69067;51.930;4.492;2024-02-26T00:23:44;99828.09;;;23.95;32.85
79589;BME280;69067;51.930;4.492;2024-02-26T00:26:09;99829.38;;;23.93;32.41
79589;BME280;69067;51.930;4.492;2024-02-26T00:28:36;99832.69;;;24.07;32.20
79589;BME280;69067;51.930;4.492;2024-02-26T00:31:02;99832.00;;;23.88;32.48
79589;BME280;69067;51.930;4.492;2024-02-26T00:33:28;99833.53;;;23.95;32.17
79589;BME280;69067;51.930;4.492;2024-02-26T00:35:54;99828.81;;;24.03;32.88
79589;BME280;69067;51.930;4.492;2024-02-26T00:38:20;99838.75;;;23.97;32.83
79589;BME280;69067;51.930;4.492;2024-02-26T00:40:46;99827.59;;;23.87;32.25
79589;BME280;69067;51.930;4.492;2024-02-26T00:43:12;99828.81;;;24.03;32.35
79589;BME280;69067;51.930;4.492;2024-02-26T00:45:39;99832.38;;;23.91;32.50
79589;BME280;69067;51.930;4.492;2024-02-26T00:48:04;99830.94;;;23.89;32.80
79589;BME280;69067;51.930;4.492;2024-02-26T00:50:31;99829.75;;;23.97;32.48
79589;BME280;69067;51.930;4.492;2024-02-26T00:52:57;99826.56;;;23.88;32.89
79589;BME280;69067;51.930;4.492;2024-02-26T00:55:23;99829.63;;;24.03;32.53
79589;BME280;69067;51.930;4.492;2024-02-26T00:57:49;99827.59;;;23.87;32.23
79589;BME280;69067;51.930;4.492;2024-02-26T01:00:15;99832.47;;;23.97;32.59
79589;BME280;69067;51.930;4.492;2024-02-26T01:02:41;99832.38;;;23.91;32.35
79589;BME280;69067;51.930;4.492;2024-02-26T01:05:08;99834.38;;;23.84;32.85
79589;BME280;69067;51.930;4.492;2024-02-26T01:07:36;99834.72;;;24.00;32.19
79589;BME280;69067;51.930;4.492;2024-02-26T01:10:02;99833.03;;;23.87;32.34
79589;BME280;69067;51.930;4.492;2024-02-26T01:12:29;99836.03;;;23.85;32.67
79589;BME280;69067;51.930;4.492;2024-02-26T01:14:55;99841.09;;;23.93;32.31
79589;BME280;69067;51.930;4.492;2024-02-26T01:17:20;99839.91;;;23.89;32.54
79589;BME280;69067;51.930;4.492;2024-02-26T01:19:46;99844.28;;;23.90;32.87
79589;BME280;69067;51.930;4.492;2024-02-26T01:22:12;99839.78;;;23.84;32.97
79589;BME280;69067;51.930;4.492;2024-02-26T01:24:38;99843.25;;;23.91;32.56
79589;BME280;69067;51.930;4.492;2024-02-26T01:27:04;99831.53;;;23.91;33.04
79589;BME280;69067;51.930;4.492;2024-02-26T01:29:29;99833.78;;;24.06;32.22
79589;BME280;69067;51.930;4.492;2024-02-26T01:31:56;99836.03;;;23.85;32.21
79589;BME280;69067;51.930;4.492;2024-02-26T01:34:21;99836.34;;;23.77;32.49
79589;BME280;69067;51.930;4.492;2024-02-26T01:36:47;99830.31;;;23.87;33.08
79589;BME280;69067;51.930;4.492;2024-02-26T01:39:13;99835.41;;;23.83;32.50
79589;BME280;69067;51.930;4.492;2024-02-26T01:41:39;99845.91;;;23.80;32.64
79589;BME280;69067;51.930;4.492;2024-02-26T01:44:06;99834.59;;;23.83;32.83
79589;BME280;69067;51.930;4.492;2024-02-26T01:46:34;99850.06;;;23.82;32.37
79589;BME280;69067;51.930;4.492;2024-02-26T01:49:01;99860.22;;;23.87;32.53
79589;BME280;69067;51.930;4.492;2024-02-26T01:51:28;99855.88;;;23.98;32.42
79589;BME280;69067;51.930;4.492;2024-02-26T01:53:54;99855.06;;;23.85;32.77
79589;BME280;69067;51.930;4.492;2024-02-26T01:56:22;99861.88;;;23.76;32.67
79589;BME280;69067;51.930;4.492;2024-02-26T01:58:48;99865.06;;;23.73;33.71
79589;BME280;69067;51.930;4.492;2024-02-26T02:01:15;99866.50;;;23.87;33.04
79589;BME280;69067;51.930;4.492;2024-02-26T02:03:42;99866.28;;;23.89;32.69
79589;BME280;69067;51.930;4.492;2024-02-26T02:06:09;99862.50;;;23.78;32.59
79589;BME280;69067;51.930;4.492;2024-02-26T02:08:37;99866.16;;;23.84;32.69
79589;BME280;69067;51.930;4.492;2024-02-26T02:11:04;99878.91;;;23.83;33.07
79589;BME280;69067;51.930;4.492;2024-02-26T02:13:31;99877.72;;;23.79;33.19
79589;BME280;69067;51.930;4.492;2024-02-26T02:15:56;99870.66;;;23.78;32.31
79589;BME280;69067;51.930;4.492;2024-02-26T02:18:22;99875.00;;;23.79;32.75
79589;BME280;69067;51.930;4.492;2024-02-26T02:20:48;99877.47;;;23.81;33.15
79589;BME280;69067;51.930;4.492;2024-02-26T02:23:14;99882.56;;;23.77;32.76
79589;BME280;69067;51.930;4.492;2024-02-26T02:25:39;99878.41;;;23.63;33.78
79589;BME280;69067;51.930;4.492;2024-02-26T02:28:05;99885.03;;;23.79;32.81
79589;BME280;69067;51.930;4.492;2024-02-26T02:30:32;99895.22;;;23.72;33.02
79589;BME280;69067;51.930;4.492;2024-02-26T02:32:58;99906.31;;;23.70;33.14
79589;BME280;69067;51.930;4.492;2024-02-26T02:35:25;99912.78;;;23.69;33.19
79589;BME280;69067;51.930;4.492;2024-02-26T02:37:55;99910.59;;;23.78;33.20
79589;BME280;69067;51.930;4.492;2024-02-26T02:40:22;99905.97;;;23.78;33.05
79589;BME280;69067;51.930;4.492;2024-02-26T02:42:47;99917.09;;;23.77;32.48
79589;BME280;69067;51.930;4.492;2024-02-26T02:45:13;99913.16;;;23.73;33.69
79589;BME280;69067;51.930;4.492;2024-02-26T02:47:39;99920.56;;;23.66;33.38
79589;BME280;69067;51.930;4.492;2024-02-26T02:50:05;99909.59;;;23.72;33.12
79589;BME280;69067;51.930;4.492;2024-02-26T02:52:31;99918.56;;;23.61;33.27
79589;BME280;69067;51.930;4.492;2024-02-26T02:54:58;99912.06;;;23.62;33.42
79589;BME280;69067;51.930;4.492;2024-02-26T02:57:23;99918.69;;;23.66;33.13
79589;BME280;69067;51.930;4.492;2024-02-26T02:59:49;99924.38;;;23.65;33.73
79589;BME280;69067;51.930;4.492;2024-02-26T03:02:15;99924.44;;;23.58;33.80
79589;BME280;69067;51.930;4.492;2024-02-26T03:04:41;99925.28;;;23.59;33.83
79589;BME280;69067;51.930;4.492;2024-02-26T03:07:06;99933.09;;;23.67;33.55
79589;BME280;69067;51.930;4.492;2024-02-26T03:09:32;99924.59;;;23.63;33.39
79589;BME280;69067;51.930;4.492;2024-02-26T03:11:58;99934.41;;;23.64;33.78
79589;BME280;69067;51.930;4.492;2024-02-26T03:14:23;99932.75;;;23.63;33.27
79589;BME280;69067;51.930;4.492;2024-02-26T03:16:53;99933.50;;;23.70;33.31
79589;BME280;69067;51.930;4.492;2024-02-26T03:19:20;99925.84;;;23.49;33.44
79589;BME280;69067;51.930;4.492;2024-02-26T03:21:46;99929.09;;;23.69;33.22
79589;BME280;69067;51.930;4.492;2024-02-26T03:24:11;99941.66;;;23.70;33.34
79589;BME280;69067;51.930;4.492;2024-02-26T03:26:37;99941.91;;;23.50;33.58
79589;BME280;69067;51.930;4.492;2024-02-26T03:29:04;99940.09;;;23.74;33.37
79589;BME280;69067;51.930;4.492;2024-02-26T03:31:30;99938.63;;;23.60;33.63
79589;BME280;69067;51.930;4.492;2024-02-26T03:33:56;99947.84;;;23.59;33.09
79589;BME280;69067;51.930;4.492;2024-02-26T03:36:22;99943.16;;;23.66;33.94
79589;BME280;69067;51.930;4.492;2024-02-26T03:38:48;99947.75;;;23.66;33.02
79589;BME280;69067;51.930;4.492;2024-02-26T03:41:14;99940.75;;;23.58;33.34
79589;BME280;69067;51.930;4.492;2024-02-26T03:43:40;99944.16;;;23.53;33.46
79589;BME280;69067;51.930;4.492;2024-02-26T03:46:09;99944.16;;;23.53;33.09
79589;BME280;69067;51.930;4.492;2024-02-26T03:48:40;99928.25;;;23.57;33.52
79589;BME280;69067;51.930;4.492;2024-02-26T03:51:08;99937.06;;;23.52;33.78
79589;BME280;69067;51.930;4.492;2024-02-26T03:53:36;99952.28;;;23.72;33.41
79589;BME280;69067;51.930;4.492;2024-02-26T03:56:06;99931.69;;;23.46;33.56
79589;BME280;69067;51.930;4.492;2024-02-26T03:58:32;99947.94;;;23.52;33.38
79589;BME280;69067;51.930;4.492;2024-02-26T04:00:59;99938.78;;;23.47;34.23
79589;BME280;69067;51.930;4.492;2024-02-26T04:03:25;99943.31;;;23.53;33.55
79589;BME280;69067;51.930;4.492;2024-02-26T04:05:51;99955.50;;;23.50;33.76
79589;BME280;69067;51.930;4.492;2024-02-26T04:08:17;99942.97;;;23.49;33.72
79589;BME280;69067;51.930;4.492;2024-02-26T04:10:42;99956.91;;;23.53;33.44
79589;BME280;69067;51.930;4.492;2024-02-26T04:13:08;99949.81;;;23.34;34.01
79589;BME280;69067;51.930;4.492;2024-02-26T04:15:34;99957.44;;;23.62;33.18
79589;BME280;69067;51.930;4.492;2024-02-26T04:17:59;99959.78;;;23.40;34.00
79589;BME280;69067;51.930;4.492;2024-02-26T04:20:26;99970.50;;;23.53;33.21
79589;BME280;69067;51.930;4.492;2024-02-26T04:22:51;99961.00;;;23.26;34.18
79589;BME280;69067;51.930;4.492;2024-02-26T04:25:18;99974.75;;;23.49;33.40
79589;BME280;69067;51.930;4.492;2024-02-26T04:27:44;99973.91;;;23.48;33.54
79589;BME280;69067;51.930;4.492;2024-02-26T04:30:10;99974.66;;;23.55;33.39
79589;BME280;69067;51.930;4.492;2024-02-26T04:32:36;99974.28;;;23.52;33.34
79589;BME280;69067;51.930;4.492;2024-02-26T04:35:03;99974.09;;;23.47;33.07
79589;BME280;69067;51.930;4.492;2024-02-26T04:37:28;99965.50;;;23.32;34.30
79589;BME280;69067;51.930;4.492;2024-02-26T04:39:59;99966.56;;;23.31;33.50
79589;BME280;69067;51.930;4.492;2024-02-26T04:42:25;99967.31;;;23.38;33.52
79589;BME280;69067;51.930;4.492;2024-02-26T04:44:51;99977.50;;;23.24;34.27
79589;BME280;69067;51.930;4.492;2024-02-26T04:47:17;99982.94;;;23.42;33.22
79589;BME280;69067;51.930;4.492;2024-02-26T04:49:42;99979.56;;;23.29;33.61
79589;BME280;69067;51.930;4.492;2024-02-26T04:52:08;99986.94;;;23.40;33.13
79589;BME280;69067;51.930;4.492;2024-02-26T04:54:34;99983.13;;;23.29;33.85
79589;BME280;69067;51.930;4.492;2024-02-26T04:57:00;99989.97;;;23.32;33.73
79589;BME280;69067;51.930;4.492;2024-02-26T04:59:25;99997.19;;;23.38;33.75
79589;BME280;69067;51.930;4.492;2024-02-26T05:01:51;99991.53;;;23.39;33.91
79589;BME280;69067;51.930;4.492;2024-02-26T05:04:18;99976.16;;;23.33;34.08
79589;BME280;69067;51.930;4.492;2024-02-26T05:06:44;99987.25;;;23.32;33.57
79589;BME280;69067;51.930;4.492;2024-02-26T05:09:10;99991.09;;;23.42;33.86
79589;BME280;69067;51.930;4.492;2024-02-26T05:11:36;99999.16;;;23.31;33.77
79589;BME280;69067;51.930;4.492;2024-02-26T05:14:02;99994.47;;;23.38;33.52
79589;BME280;69067;51.930;4.492;2024-02-26T05:16:28;99994.72;;;23.36;33.72
79589;BME280;69067;51.930;4.492;2024-02-26T05:18:55;100004.94;;;23.23;33.64
79589;BME280;69067;51.930;4.492;2024-02-26T05:21:21;100018.44;;;23.47;33.79
79589;BME280;69067;51.930;4.492;2024-02-26T05:23:47;100010.03;;;23.31;34.20
79589;BME280;69067;51.930;4.492;2024-02-26T05:26:19;100005.69;;;23.30;34.22
79589;BME280;69067;51.930;4.492;2024-02-26T05:28:48;100029.66;;;23.33;34.09
79589;BME280;69067;51.930;4.492;2024-02-26T05:31:15;100024.09;;;23.28;34.44
79589;BME280;69067;51.930;4.492;2024-02-26T05:33:40;100027.00;;;23.44;33.85
79589;BME280;69067;51.930;4.492;2024-02-26T05:36:06;100036.97;;;23.32;33.98
79589;BME280;69067;51.930;4.492;2024-02-26T05:38:32;100027.09;;;23.38;33.82
79589;BME280;69067;51.930;4.492;2024-02-26T05:40:59;100035.22;;;23.38;34.42
79589;BME280;69067;51.930;4.492;2024-02-26T05:43:27;100044.16;;;23.27;34.32
79589;BME280;69067;51.930;4.492;2024-02-26T05:45:53;100038.56;;;23.40;34.19
79589;BME280;69067;51.930;4.492;2024-02-26T05:48:20;100030.56;;;23.27;34.32
79589;BME280;69067;51.930;4.492;2024-02-26T05:50:46;100035.84;;;23.22;33.72
79589;BME280;69067;51.930;4.492;2024-02-26T05:53:12;100058.72;;;23.32;33.39
79589;BME280;69067;51.930;4.492;2024-02-26T05:55:38;100066.50;;;23.29;33.95
79589;BME280;69067;51.930;4.492;2024-02-26T05:58:04;100050.84;;;23.24;34.61
79589;BME280;69067;51.930;4.492;2024-02-26T06:00:30;100065.19;;;23.31;33.96
79589;BME280;69067;51.930;4.492;2024-02-26T06:02:56;100059.06;;;23.17;33.72
79589;BME280;69067;51.930;4.492;2024-02-26T06:05:22;100065.44;;;23.30;33.94
79589;BME280;69067;51.930;4.492;2024-02-26T06:07:48;100072.38;;;23.26;34.70
79589;BME280;69067;51.930;4.492;2024-02-26T06:10:13;100075.81;;;23.14;33.63
79589;BME280;69067;51.930;4.492;2024-02-26T06:12:39;100076.53;;;23.28;34.15
79589;BME280;69067;51.930;4.492;2024-02-26T06:15:06;100087.59;;;23.27;34.22
79589;BME280;69067;51.930;4.492;2024-02-26T06:17:32;100100.50;;;23.31;33.89
79589;BME280;69067;51.930;4.492;2024-02-26T06:19:59;100085.19;;;23.18;34.01
79589;BME280;69067;51.930;4.492;2024-02-26T06:22:25;100102.09;;;23.21;33.86
79589;BME280;69067;51.930;4.492;2024-02-26T06:24:51;100090.88;;;23.10;33.82
79589;BME280;69067;51.930;4.492;2024-02-26T06:27:17;100102.16;;;23.14;34.27
79589;BME280;69067;51.930;4.492;2024-02-26T06:29:43;100106.69;;;23.20;33.95
79589;BME280;69067;51.930;4.492;2024-02-26T06:32:09;100104.59;;;23.22;33.42
79589;BME280;69067;51.930;4.492;2024-02-26T06:34:35;100107.81;;;23.12;33.96
79589;BME280;69067;51.930;4.492;2024-02-26T06:37:00;100122.66;;;23.10;34.55
79589;BME280;69067;51.930;4.492;2024-02-26T06:39:26;100114.94;;;23.32;33.40
79589;BME280;69067;51.930;4.492;2024-02-26T06:41:52;100133.88;;;23.38;33.61
79589;BME280;69067;51.930;4.492;2024-02-26T06:44:25;100129.81;;;23.29;33.59
79589;BME280;69067;51.930;4.492;2024-02-26T06:46:57;100132.75;;;23.28;34.03
79589;BME280;69067;51.930;4.492;2024-02-26T06:49:27;100138.13;;;23.09;33.60
79589;BME280;69067;51.930;4.492;2024-02-26T06:51:53;100124.88;;;23.20;33.39
79589;BME280;69067;51.930;4.492;2024-02-26T06:54:19;100150.84;;;23.34;33.94
79589;BME280;69067;51.930;4.492;2024-02-26T06:56:45;100140.25;;;23.07;33.64
79589;BME280;69067;51.930;4.492;2024-02-26T06:59:11;100133.91;;;23.13;34.31
79589;BME280;69067;51.930;4.492;2024-02-26T07:01:37;100158.34;;;23.13;34.25
79589;BME280;69067;51.930;4.492;2024-02-26T07:04:05;100155.13;;;22.98;34.59
79589;BME280;69067;51.930;4.492;2024-02-26T07:06:31;100167.81;;;23.04;34.62
79589;BME280;69067;51.930;4.492;2024-02-26T07:08:57;100171.88;;;22.95;33.87
79589;BME280;69067;51.930;4.492;2024-02-26T07:11:23;100161.22;;;22.94;34.58
79589;BME280;69067;51.930;4.492;2024-02-26T07:13:48;100184.44;;;22.90;34.70
79589;BME280;69067;51.930;4.492;2024-02-26T07:16:15;100167.75;;;22.86;34.53
79589;BME280;69067;51.930;4.492;2024-02-26T07:18:41;100176.56;;;22.82;34.86
79589;BME280;69067;51.930;4.492;2024-02-26T07:21:09;100192.97;;;22.93;34.26
79589;BME280;69067;51.930;4.492;2024-02-26T07:23:35;100180.88;;;22.89;35.03
79589;BME280;69067;51.930;4.492;2024-02-26T07:26:00;100181.22;;;22.99;34.37
79589;BME280;69067;51.930;4.492;2024-02-26T07:28:26;100199.25;;;23.18;34.29
79589;BME280;69067;51.930;4.492;2024-02-26T07:30:52;100195.38;;;23.08;33.57
79589;BME280;69067;51.930;4.492;2024-02-26T07:33:17;100206.19;;;23.14;33.98
79589;BME280;69067;51.930;4.492;2024-02-26T07:35:43;100199.53;;;23.10;33.62
79589;BME280;69067;51.930;4.492;2024-02-26T07:38:09;100200.25;;;22.99;34.24
79589;BME280;69067;51.930;4.492;2024-02-26T07:40:35;100210.16;;;23.12;33.80
79589;BME280;69067;51.930;4.492;2024-02-26T07:43:01;100207.66;;;23.10;33.90
79589;BME280;69067;51.930;4.492;2024-02-26T07:45:27;100216.91;;;23.09;34.56
79589;BME280;69067;51.930;4.492;2024-02-26T07:47:53;100214.13;;;23.16;34.33
79589;BME280;69067;51.930;4.492;2024-02-26T07:50:19;100241.25;;;23.23;34.19
79589;BME280;69067;51.930;4.492;2024-02-26T07:52:45;100232.47;;;23.21;34.43
79589;BME280;69067;51.930;4.492;2024-02-26T07:55:10;100228.28;;;23.18;33.87
79589;BME280;69067;51.930;4.492;2024-02-26T07:57:36;100229.41;;;23.10;34.08
79589;BME280;69067;51.930;4.492;2024-02-26T08:00:03;100236.22;;;23.20;33.39
79589;BME280;69067;51.930;4.492;2024-02-26T08:02:29;100238.94;;;23.20;34.46
79589;BME280;69067;51.930;4.492;2024-02-26T08:04:54;100242.59;;;23.32;34.43
79589;BME280;69067;51.930;4.492;2024-02-26T08:07:20;100252.16;;;23.16;34.14
79589;BME280;69067;51.930;4.492;2024-02-26T08:09:47;100247.53;;;23.16;34.29
79589;BME280;69067;51.930;4.492;2024-02-26T08:12:13;100260.06;;;23.17;33.77
79589;BME280;69067;51.930;4.492;2024-02-26T08:14:42;100268.19;;;23.17;33.99
79589;BME280;69067;51.930;4.492;2024-02-26T08:17:09;100260.41;;;23.28;34.01
79589;BME280;69067;51.930;4.492;2024-02-26T08:19:35;100262.56;;;23.19;33.99
79589;BME280;69067;51.930;4.492;2024-02-26T08:22:01;100271.91;;;23.30;34.29
79589;BME280;69067;51.930;4.492;2024-02-26T08:24:27;100273.38;;;23.26;33.48
79589;BME280;69067;51.930;4.492;2024-02-26T08:26:53;100289.03;;;23.30;33.71
79589;BME280;69067;51.930;4.492;2024-02-26T08:29:19;100284.75;;;23.16;34.21
79589;BME280;69067;51.930;4.492;2024-02-26T08:31:45;100290.31;;;23.28;34.44
79589;BME280;69067;51.930;4.492;2024-02-26T08:34:11;100296.94;;;23.32;33.86
79589;BME280;69067;51.930;4.492;2024-02-26T08:36:36;100290.13;;;23.23;33.97
79589;BME280;69067;51.930;4.492;2024-02-26T08:39:02;100288.84;;;23.25;34.02
79589;BME280;69067;51.930;4.492;2024-02-26T08:41:28;100301.84;;;23.23;34.26
79589;BME280;69067;51.930;4.492;2024-02-26T08:43:54;100305.72;;;23.34;34.23
79589;BME280;69067;51.930;4.492;2024-02-26T08:46:20;100313.91;;;23.27;34.24
79589;BME280;69067;51.930;4.492;2024-02-26T08:48:46;100316.00;;;23.25;33.10
79589;BME280;69067;51.930;4.492;2024-02-26T08:51:12;100319.34;;;23.27;33.96
79589;BME280;69067;51.930;4.492;2024-02-26T08:53:38;100317.88;;;23.25;33.60
79589;BME280;69067;51.930;4.492;2024-02-26T08:56:05;100318.09;;;23.30;34.04
79589;BME280;69067;51.930;4.492;2024-02-26T08:58:30;100318.88;;;23.37;33.71
79589;BME280;69067;51.930;4.492;2024-02-26T09:00:56;100339.72;;;23.43;33.56
79589;BME280;69067;51.930;4.492;2024-02-26T09:03:22;100320.34;;;23.33;33.92
79589;BME280;69067;51.930;4.492;2024-02-26T09:05:49;100323.69;;;23.35;33.62
79589;BME280;69067;51.930;4.492;2024-02-26T09:08:14;100349.75;;;23.42;34.35
79589;BME280;69067;51.930;4.492;2024-02-26T09:10:40;100337.44;;;23.40;33.46
79589;BME280;69067;51.930;4.492;2024-02-26T09:13:06;100342.88;;;23.40;33.37
79589;BME280;69067;51.930;4.492;2024-02-26T09:15:32;100349.75;;;23.49;33.30
79589;BME280;69067;51.930;4.492;2024-02-26T09:17:58;100343.50;;;23.42;33.39
79589;BME280;69067;51.930;4.492;2024-02-26T09:20:23;100356.06;;;23.36;33.85
79589;BME280;69067;51.930;4.492;2024-02-26T09:22:50;100368.56;;;23.44;33.79
79589;BME280;69067;51.930;4.492;2024-02-26T09:25:16;100368.56;;;23.44;33.94
79589;BME280;69067;51.930;4.492;2024-02-26T09:27:43;100370.66;;;23.42;33.94
79589;BME280;69067;51.930;4.492;2024-02-26T09:30:13;100366.44;;;23.46;33.48
79589;BME280;69067;51.930;4.492;2024-02-26T09:32:40;100364.41;;;23.41;33.73
79589;BME280;69067;51.930;4.492;2024-02-26T09:35:06;100376.47;;;23.52;33.93
79589;BME280;69067;51.930;4.492;2024-02-26T09:37:46;100375.88;;;23.50;33.48
79589;BME280;69067;51.930;4.492;2024-02-26T09:40:12;100393.84;;;23.51;33.45
79589;BME280;69067;51.930;4.492;2024-02-26T09:42:43;100385.47;;;23.46;33.31
79589;BME280;69067;51.930;4.492;2024-02-26T09:45:20;100389.47;;;23.50;33.28
79589;BME280;69067;51.930;4.492;2024-02-26T09:47:48;100399.28;;;23.51;33.18
79589;BME280;69067;51.930;4.492;2024-02-26T09:50:17;100397.38;;;23.51;33.64
79589;BME280;69067;51.930;4.492;2024-02-26T09:52:43;100415.03;;;23.36;33.19
79589;BME280;69067;51.930;4.492;2024-02-26T09:55:09;100417.25;;;23.45;33.65
79589;BME280;69067;51.930;4.492;2024-02-26T09:57:37;100429.19;;;23.51;33.93
79589;BME280;69067;51.930;4.492;2024-02-26T10:00:04;100413.06;;;23.56;32.80
79589;BME280;69067;51.930;4.492;2024-02-26T10:02:36;100424.56;;;23.51;33.63
79589;BME280;69067;51.930;4.492;2024-02-26T10:05:04;100423.75;;;23.38;33.47
79589;BME280;69067;51.930;4.492;2024-02-26T10:07:31;100435.00;;;23.54;33.28
79589;BME280;69067;51.930;4.492;2024-02-26T10:09:57;100428.94;;;23.52;33.01
79589;BME280;69067;51.930;4.492;2024-02-26T10:12:23;100449.63;;;23.53;33.58
79589;BME280;69067;51.930;4.492;2024-02-26T10:14:51;100430.41;;;23.55;32.99
79589;BME280;69067;51.930;4.492;2024-02-26T10:17:19;100436.63;;;23.62;33.58
79589;BME280;69067;51.930;4.492;2024-02-26T10:19:45;100448.63;;;23.48;33.32
79589;BME280;69067;51.930;4.492;2024-02-26T10:22:11;100447.53;;;23.55;32.85
79589;BME280;69067;51.930;4.492;2024-02-26T10:24:36;100447.97;;;23.46;33.19
79589;BME280;69067;51.930;4.492;2024-02-26T10:27:03;100459.03;;;23.58;33.12
79589;BME280;69067;51.930;4.492;2024-02-26T10:29:29;100454.44;;;23.45;33.31
79589;BME280;69067;51.930;4.492;2024-02-26T10:31:55;100459.09;;;23.38;33.44
79589;BME280;69067;51.930;4.492;2024-02-26T10:34:21;100453.03;;;23.49;33.27
79589;BME280;69067;51.930;4.492;2024-02-26T10:36:48;100476.81;;;23.53;33.15
79589;BME280;69067;51.930;4.492;2024-02-26T10:39:15;100478.56;;;23.35;33.15
79589;BME280;69067;51.930;4.492;2024-02-26T10:41:42;100470.56;;;23.46;33.22
79589;BME280;69067;51.930;4.492;2024-02-26T10:44:10;100452.59;;;23.39;33.59
79589;BME280;69067;51.930;4.492;2024-02-26T10:46:37;100475.25;;;23.26;33.99
79589;BME280;69067;51.930;4.492;2024-02-26T10:49:04;100476.81;;;23.47;33.11
79589;BME280;69067;51.930;4.492;2024-02-26T10:51:32;100475.22;;;23.33;33.01
79589;BME280;69067;51.930;4.492;2024-02-26T10:54:00;100482.72;;;23.31;33.79
79589;BME280;69067;51.930;4.492;2024-02-26T10:56:34;100499.22;;;23.42;33.17
79589;BME280;69067;51.930;4.492;2024-02-26T10:59:01;100494.69;;;23.30;32.75
79589;BME280;69067;51.930;4.492;2024-02-26T11:01:28;100494.22;;;23.33;33.45
79589;BME280;69067;51.930;4.492;2024-02-26T11:03:57;100515.16;;;23.26;33.06
79589;BME280;69067;51.930;4.492;2024-02-26T11:06:26;100518.88;;;23.38;33.30
79589;BME280;69067;51.930;4.492;2024-02-26T11:08:53;100515.78;;;23.28;33.28
79589;BME280;69067;51.930;4.492;2024-02-26T11:11:20;100510.34;;;23.28;33.49
79589;BME280;69067;51.930;4.492;2024-02-26T11:13:48;100527.47;;;23.28;33.63
79589;BME280;69067;51.930;4.492;2024-02-26T11:16:23;100524.75;;;23.28;33.14
79589;BME280;69067;51.930;4.492;2024-02-26T11:18:53;100526.81;;;23.33;32.99
79589;BME280;69067;51.930;4.492;2024-02-26T11:21:21;100523.50;;;23.24;33.73
79589;BME280;69067;51.930;4.492;2024-02-26T11:24:09;100542.97;;;23.21;33.77
79589;BME280;69067;51.930;4.492;2024-02-26T11:26:43;100552.31;;;23.32;33.10
79589;BME280;69067;51.930;4.492;2024-02-26T11:29:32;100538.56;;;23.27;32.89
79589;BME280;69067;51.930;4.492;2024-02-26T11:32:19;100548.13;;;23.49;33.24
79589;BME280;69067;51.930;4.492;2024-02-26T11:34:46;100549.38;;;23.40;33.33
79589;BME280;69067;51.930;4.492;2024-02-26T11:37:13;100554.19;;;23.38;32.61
79589;BME280;69067;51.930;4.492;2024-02-26T11:39:45;100554.81;;;23.40;32.98
79589;BME280;69067;51.930;4.492;2024-02-26T11:42:14;100554.00;;;23.33;32.90
79589;BME280;69067;51.930;4.492;2024-02-26T11:44:41;100558.38;;;23.34;33.25
79589;BME280;69067;51.930;4.492;2024-02-26T11:49:45;100561.72;;;23.49;33.13
79589;BME280;69067;51.930;4.492;2024-02-26T11:52:13;100557.97;;;23.37;32.59
79589;BME280;69067;51.930;4.492;2024-02-26T11:54:47;100558.56;;;23.45;32.65
79589;BME280;69067;51.930;4.492;2024-02-26T12:05:21;100568.41;;;23.40;32.90
79589;BME280;69067;51.930;4.492;2024-02-26T12:08:00;100573.09;;;23.84;31.73
79589;BME280;69067;51.930;4.492;2024-02-26T12:10:36;100570.06;;;23.54;32.70
79589;BME280;69067;51.930;4.492;2024-02-26T12:13:11;100579.25;;;23.53;33.06
79589;BME280;69067;51.930;4.492;2024-02-26T12:18:16;100589.91;;;23.61;32.67
79589;BME280;69067;51.930;4.492;2024-02-26T12:20:43;100590.81;;;23.29;32.75
79589;BME280;69067;51.930;4.492;2024-02-26T12:23:16;100596.84;;;23.44;32.45
79589;BME280;69067;51.930;4.492;2024-02-26T12:25:45;100606.22;;;23.54;32.49
79589;BME280;69067;51.930;4.492;2024-02-26T12:28:14;100604.56;;;23.40;32.66
79589;BME280;69067;51.930;4.492;2024-02-26T12:30:40;100599.31;;;23.45;32.42
79589;BME280;69067;51.930;4.492;2024-02-26T12:33:07;100608.75;;;23.43;32.43
79589;BME280;69067;51.930;4.492;2024-02-26T12:35:35;100614.38;;;23.54;31.96
79589;BME280;69067;51.930;4.492;2024-02-26T12:38:01;100605.41;;;23.54;32.76
79589;BME280;69067;51.930;4.492;2024-02-26T12:40:29;100612.31;;;23.50;32.58
79589;BME280;69067;51.930;4.492;2024-02-26T12:42:55;100624.00;;;23.44;32.89
79589;BME280;69067;51.930;4.492;2024-02-26T12:45:21;100631.53;;;23.48;32.27
79589;BME280;69067;51.930;4.492;2024-02-26T12:47:47;100633.22;;;23.36;32.64
79589;BME280;69067;51.930;4.492;2024-02-26T12:50:15;100631.34;;;23.50;31.89
79589;BME280;69067;51.930;4.492;2024-02-26T12:52:44;100649.09;;;23.52;32.07
79589;BME280;69067;51.930;4.492;2024-02-26T12:55:19;100631.72;;;23.47;32.48
79589;BME280;69067;51.930;4.492;2024-02-26T12:57:46;100648.22;;;23.45;32.11
79589;BME280;69067;51.930;4.492;2024-02-26T13:00:18;100645.72;;;23.37;32.45
79589;BME280;69067;51.930;4.492;2024-02-26T13:02:49;100657.66;;;23.56;31.89
79589;BME280;69067;51.930;4.492;2024-02-26T13:05:17;100668.75;;;23.48;32.00
79589;BME280;69067;51.930;4.492;2024-02-26T13:07:45;100671.47;;;23.35;33.08